sensor_id;sensor_type;location;lat;lon;timestamp;pressure;altitude;pressure_sealevel;temperature;humidity
65602;BME280;52273;39.910;116.432;2022-07-29T14:38:18;100287.76;;;27.86;65.60
65602;BME280;52273;39.910;116.432;2022-07-29T14:40:49;100290.09;;;27.97;65.40
65602;BME280;52273;39.910;116.432;2022-07-29T14:43:19;100286.09;;;28.10;64.78
65602;BME280;52273;39.910;116.432;2022-07-29T14:45:49;100286.75;;;28.17;64.87
65602;BME280;52273;39.910;116.432;2022-07-29T14:48:19;100289.02;;;28.25;64.38
65602;BME280;52273;39.910;116.432;2022-07-29T14:50:49;100290.94;;;28.24;64.28
65602;BME280;52273;39.910;116.432;2022-07-29T14:53:19;100292.91;;;28.29;64.46
65602;BME280;52273;39.910;116.432;2022-07-29T14:55:48;100295.41;;;28.31;64.61
65602;BME280;52273;39.910;116.432;2022-07-29T14:58:18;100299.20;;;28.27;64.84
65602;BME280;52273;39.910;116.432;2022-07-29T15:00:49;100301.11;;;28.24;64.64
65602;BME280;52273;39.910;116.432;2022-07-29T15:03:19;100313.19;;;28.23;65.18
65602;BME280;52273;39.910;116.432;2022-07-29T15:05:50;100314.28;;;28.22;65.22
65602;BME280;52273;39.910;116.432;2022-07-29T15:08:19;100314.51;;;28.18;65.45
65602;BME280;52273;39.910;116.432;2022-07-29T15:10:49;100315.61;;;28.17;65.41
65602;BME280;52273;39.910;116.432;2022-07-29T15:13:19;100312.86;;;28.17;65.47
65602;BME280;52273;39.910;116.432;2022-07-29T15:15:49;100314.51;;;28.18;65.18
65602;BME280;52273;39.910;116.432;2022-07-29T15:18:19;100308.79;;;28.22;65.57
65602;BME280;52273;39.910;116.432;2022-07-29T15:20:48;100314.28;;;28.22;66.05
65602;BME280;52273;39.910;116.432;2022-07-29T15:23:18;100318.36;;;28.17;66.53
65602;BME280;52273;39.910;116.432;2022-07-29T15:25:48;100314.98;;;28.12;66.67
65602;BME280;52273;39.910;116.432;2022-07-29T15:28:18;100314.05;;;28.01;67.02
65602;BME280;52273;39.910;116.432;2022-07-29T15:30:47;100313.70;;;27.95;67.26
65602;BME280;52273;39.910;116.432;2022-07-29T15:33:17;100314.72;;;27.89;67.93
65602;BME280;52273;39.910;116.432;2022-07-29T15:35:47;100318.86;;;27.92;67.80
65602;BME280;52273;39.910;116.432;2022-07-29T15:38:17;100318.84;;;27.89;68.02
65602;BME280;52273;39.910;116.432;2022-07-29T15:40:47;100312.48;;;27.86;68.05
65602;BME280;52273;39.910;116.432;2022-07-29T15:43:17;100314.05;;;27.82;68.30
65602;BME280;52273;39.910;116.432;2022-07-29T15:45:47;100314.14;;;27.87;68.20
65602;BME280;52273;39.910;116.432;2022-07-29T15:48:27;100313.86;;;27.86;68.25
65602;BME280;52273;39.910;116.432;2022-07-29T15:50:57;100308.55;;;27.82;68.64
65602;BME280;52273;39.910;116.432;2022-07-29T15:53:27;100303.00;;;27.77;68.68
65602;BME280;52273;39.910;116.432;2022-07-29T15:55:57;100304.84;;;27.71;68.79
65602;BME280;52273;39.910;116.432;2022-07-29T15:58:27;100312.81;;;27.70;68.95
65602;BME280;52273;39.910;116.432;2022-07-29T16:00:56;100316.41;;;27.73;68.67
65602;BME280;52273;39.910;116.432;2022-07-29T16:03:26;100324.95;;;27.74;68.47
65602;BME280;52273;39.910;116.432;2022-07-29T16:05:56;100327.77;;;27.60;69.04
65602;BME280;52273;39.910;116.432;2022-07-29T16:08:26;100334.05;;;27.58;68.76
65602;BME280;52273;39.910;116.432;2022-07-29T16:10:55;100329.49;;;27.47;69.57
65602;BME280;52273;39.910;116.432;2022-07-29T16:13:25;100335.02;;;27.49;69.69
65602;BME280;52273;39.910;116.432;2022-07-29T16:15:55;100328.09;;;27.44;69.67
65602;BME280;52273;39.910;116.432;2022-07-29T16:18:24;100337.22;;;27.47;69.85
65602;BME280;52273;39.910;116.432;2022-07-29T16:20:54;100335.11;;;27.54;69.69
65602;BME280;52273;39.910;116.432;2022-07-29T16:23:24;100333.00;;;27.42;70.11
65602;BME280;52273;39.910;116.432;2022-07-29T16:25:54;100328.46;;;27.50;69.86
65602;BME280;52273;39.910;116.432;2022-07-29T16:28:24;100328.64;;;27.44;70.14
65602;BME280;52273;39.910;116.432;2022-07-29T16:30:53;100321.23;;;27.44;70.06
65602;BME280;52273;39.910;116.432;2022-07-29T16:33:24;100326.78;;;27.49;69.88
65602;BME280;52273;39.910;116.432;2022-07-29T16:35:53;100331.17;;;27.48;69.89
65602;BME280;52273;39.910;116.432;2022-07-29T16:38:23;100331.05;;;27.40;70.18
65602;BME280;52273;39.910;116.432;2022-07-29T16:40:53;100327.23;;;27.41;69.98
65602;BME280;52273;39.910;116.432;2022-07-29T16:43:23;100321.44;;;27.40;70.07
65602;BME280;52273;39.910;116.432;2022-07-29T16:45:53;100320.61;;;27.39;70.08
65602;BME280;52273;39.910;116.432;2022-07-29T16:48:23;100322.23;;;27.38;70.13
65602;BME280;52273;39.910;116.432;2022-07-29T16:50:52;100328.39;;;27.45;69.78
65602;BME280;52273;39.910;116.432;2022-07-29T16:53:22;100330.91;;;27.49;69.71
65602;BME280;52273;39.910;116.432;2022-07-29T16:55:52;100326.88;;;27.54;69.60
65602;BME280;52273;39.910;116.432;2022-07-29T16:58:22;100324.62;;;27.51;69.40
65602;BME280;52273;39.910;116.432;2022-07-29T17:00:52;100328.16;;;27.49;69.68
65602;BME280;52273;39.910;116.432;2022-07-29T17:03:21;100321.02;;;27.48;69.51
65602;BME280;52273;39.910;116.432;2022-07-29T17:05:51;100324.97;;;27.38;69.71
65602;BME280;52273;39.910;116.432;2022-07-29T17:08:21;100329.23;;;27.29;70.15
65602;BME280;52273;39.910;116.432;2022-07-29T17:10:51;100334.23;;;27.32;70.00
65602;BME280;52273;39.910;116.432;2022-07-29T17:13:21;100335.30;;;27.31;69.90
65602;BME280;52273;39.910;116.432;2022-07-29T17:15:51;100334.72;;;27.29;70.15
65602;BME280;52273;39.910;116.432;2022-07-29T17:18:21;100340.83;;;27.33;69.82
65602;BME280;52273;39.910;116.432;2022-07-29T17:20:50;100346.11;;;27.37;69.70
65602;BME280;52273;39.910;116.432;2022-07-29T17:23:20;100347.25;;;27.39;69.48
65602;BME280;52273;39.910;116.432;2022-07-29T17:25:50;100350.27;;;27.40;69.31
65602;BME280;52273;39.910;116.432;2022-07-29T17:28:20;100352.43;;;27.38;69.57
65602;BME280;52273;39.910;116.432;2022-07-29T17:30:49;100354.63;;;27.36;69.55
65602;BME280;52273;39.910;116.432;2022-07-29T17:33:20;100352.56;;;27.29;69.72
65602;BME280;52273;39.910;116.432;2022-07-29T17:35:49;100357.74;;;27.25;69.47
65602;BME280;52273;39.910;116.432;2022-07-29T17:38:36;100348.52;;;27.17;69.85
65602;BME280;52273;39.910;116.432;2022-07-29T17:41:06;100342.55;;;27.20;69.69
65602;BME280;52273;39.910;116.432;2022-07-29T17:43:36;100343.44;;;27.23;69.38
65602;BME280;52273;39.910;116.432;2022-07-29T17:46:06;100345.66;;;27.09;69.61
65602;BME280;52273;39.910;116.432;2022-07-29T17:48:36;100353.34;;;27.10;69.52
65602;BME280;52273;39.910;116.432;2022-07-29T17:51:06;100356.09;;;27.10;69.35
65602;BME280;52273;39.910;116.432;2022-07-29T17:53:36;100354.68;;;27.07;69.43
65602;BME280;52273;39.910;116.432;2022-07-29T17:56:06;100357.34;;;27.02;69.41
65602;BME280;52273;39.910;116.432;2022-07-29T17:58:36;100356.95;;;27.13;69.16
65602;BME280;52273;39.910;116.432;2022-07-29T18:01:06;100363.02;;;27.15;68.98
65602;BME280;52273;39.910;116.432;2022-07-29T18:03:36;100366.91;;;27.16;68.95
65602;BME280;52273;39.910;116.432;2022-07-29T18:06:06;100377.58;;;27.15;68.81
65602;BME280;52273;39.910;116.432;2022-07-29T18:08:37;100377.64;;;27.18;68.74
65602;BME280;52273;39.910;116.432;2022-07-29T18:11:07;100373.62;;;27.09;68.73
65602;BME280;52273;39.910;116.432;2022-07-29T18:13:37;100380.73;;;27.22;68.27
65602;BME280;52273;39.910;116.432;2022-07-29T18:16:07;100381.32;;;27.24;68.12
65602;BME280;52273;39.910;116.432;2022-07-29T18:18:37;100378.17;;;27.32;67.89
65602;BME280;52273;39.910;116.432;2022-07-29T18:21:07;100376.92;;;27.23;68.09
65602;BME280;52273;39.910;116.432;2022-07-29T18:23:36;100380.29;;;27.27;67.82
65602;BME280;52273;39.910;116.432;2022-07-29T18:26:06;100377.71;;;27.20;67.75
65602;BME280;52273;39.910;116.432;2022-07-29T18:28:36;100374.20;;;27.11;67.82
65602;BME280;52273;39.910;116.432;2022-07-29T18:31:06;100368.80;;;26.99;68.07
65602;BME280;52273;39.910;116.432;2022-07-29T18:33:35;100363.16;;;27.06;67.81
65602;BME280;52273;39.910;116.432;2022-07-29T18:36:06;100358.48;;;27.06;67.73
65602;BME280;52273;39.910;116.432;2022-07-29T18:38:36;100351.27;;;27.00;67.91
65602;BME280;52273;39.910;116.432;2022-07-29T18:41:06;100354.25;;;26.98;68.00
65602;BME280;52273;39.910;116.432;2022-07-29T18:43:36;100356.84;;;27.05;67.98
65602;BME280;52273;39.910;116.432;2022-07-29T18:46:06;100350.77;;;27.03;67.92
65602;BME280;52273;39.910;116.432;2022-07-29T18:48:36;100361.86;;;26.94;68.32
65602;BME280;52273;39.910;116.432;2022-07-29T18:51:05;100366.48;;;26.91;68.60
65602;BME280;52273;39.910;116.432;2022-07-29T18:53:37;100367.78;;;26.88;68.66
65602;BME280;52273;39.910;116.432;2022-07-29T18:56:06;100359.63;;;26.91;68.68
65602;BME280;52273;39.910;116.432;2022-07-29T18:58:36;100349.91;;;26.86;68.89
65602;BME280;52273;39.910;116.432;2022-07-29T19:01:06;100348.97;;;26.77;69.30
65602;BME280;52273;39.910;116.432;2022-07-29T19:03:36;100349.25;;;26.78;69.35
65602;BME280;52273;39.910;116.432;2022-07-29T19:06:06;100352.81;;;26.79;69.55
65602;BME280;52273;39.910;116.432;2022-07-29T19:08:35;100342.27;;;26.88;69.32
65602;BME280;52273;39.910;116.432;2022-07-29T19:11:05;100346.89;;;26.85;69.32
65602;BME280;52273;39.910;116.432;2022-07-29T19:13:35;100333.96;;;26.83;69.38
65602;BME280;52273;39.910;116.432;2022-07-29T19:16:05;100337.61;;;26.88;69.36
65602;BME280;52273;39.910;116.432;2022-07-29T19:18:36;100335.48;;;26.93;69.24
65602;BME280;52273;39.910;116.432;2022-07-29T19:21:06;100334.16;;;26.78;69.49
65602;BME280;52273;39.910;116.432;2022-07-29T19:23:36;100330.35;;;26.79;69.56
65602;BME280;52273;39.910;116.432;2022-07-29T19:26:05;100330.39;;;26.82;69.76
65602;BME280;52273;39.910;116.432;2022-07-29T19:28:35;100325.03;;;26.73;70.11
65602;BME280;52273;39.910;116.432;2022-07-29T19:31:05;100336.20;;;26.69;70.61
65602;BME280;52273;39.910;116.432;2022-07-29T19:33:35;100326.16;;;26.60;71.10
65602;BME280;52273;39.910;116.432;2022-07-29T19:36:05;100330.95;;;26.67;70.98
65602;BME280;52273;39.910;116.432;2022-07-29T19:38:35;100327.42;;;26.69;71.01
65602;BME280;52273;39.910;116.432;2022-07-29T19:41:06;100327.81;;;26.75;70.84
65602;BME280;52273;39.910;116.432;2022-07-29T19:43:36;100331.25;;;26.68;71.40
65602;BME280;52273;39.910;116.432;2022-07-29T19:46:05;100326.17;;;26.77;71.03
65602;BME280;52273;39.910;116.432;2022-07-29T19:48:35;100325.06;;;26.75;71.16
65602;BME280;52273;39.910;116.432;2022-07-29T19:51:05;100328.52;;;26.85;70.85
65602;BME280;52273;39.910;116.432;2022-07-29T19:53:35;100331.77;;;26.82;71.10
65602;BME280;52273;39.910;116.432;2022-07-29T19:56:05;100330.08;;;26.81;71.23
65602;BME280;52273;39.910;116.432;2022-07-29T19:58:35;100329.65;;;26.87;71.16
65602;BME280;52273;39.910;116.432;2022-07-29T20:01:06;100319.33;;;26.94;70.75
65602;BME280;52273;39.910;116.432;2022-07-29T20:03:35;100317.50;;;26.83;71.16
65602;BME280;52273;39.910;116.432;2022-07-29T20:06:06;100316.53;;;26.74;71.50
65602;BME280;52273;39.910;116.432;2022-07-29T20:08:36;100320.17;;;26.63;71.84
65602;BME280;52273;39.910;116.432;2022-07-29T20:11:06;100315.08;;;26.69;71.70
65602;BME280;52273;39.910;116.432;2022-07-29T20:13:36;100314.52;;;26.84;71.22
65602;BME280;52273;39.910;116.432;2022-07-29T20:16:06;100316.75;;;26.87;71.08
65602;BME280;52273;39.910;116.432;2022-07-29T20:18:36;100317.66;;;26.76;71.18
65602;BME280;52273;39.910;116.432;2022-07-29T20:21:05;100316.37;;;26.81;71.02
65602;BME280;52273;39.910;116.432;2022-07-29T20:23:35;100321.58;;;26.66;71.65
65602;BME280;52273;39.910;116.432;2022-07-29T20:26:05;100316.25;;;26.59;71.58
65602;BME280;52273;39.910;116.432;2022-07-29T20:28:35;100316.97;;;26.54;71.83
65602;BME280;52273;39.910;116.432;2022-07-29T20:31:05;100306.89;;;26.43;72.36
65602;BME280;52273;39.910;116.432;2022-07-29T20:33:35;100312.38;;;26.43;72.51
65602;BME280;52273;39.910;116.432;2022-07-29T20:36:05;100309.00;;;26.38;72.35
65602;BME280;52273;39.910;116.432;2022-07-29T20:38:35;100303.56;;;26.41;72.36
65602;BME280;52273;39.910;116.432;2022-07-29T20:41:05;100301.17;;;26.45;72.08
65602;BME280;52273;39.910;116.432;2022-07-29T20:43:35;100305.11;;;26.34;72.59
65602;BME280;52273;39.910;116.432;2022-07-29T20:46:05;100310.48;;;26.44;72.25
65602;BME280;52273;39.910;116.432;2022-07-29T20:48:34;100309.31;;;26.40;72.24
65602;BME280;52273;39.910;116.432;2022-07-29T20:51:06;100314.20;;;26.37;72.53
65602;BME280;52273;39.910;116.432;2022-07-29T20:53:41;100309.59;;;26.41;72.27
65602;BME280;52273;39.910;116.432;2022-07-29T20:56:07;100314.60;;;26.44;72.22
65602;BME280;52273;39.910;116.432;2022-07-29T20:58:38;100309.73;;;26.34;72.39
65602;BME280;52273;39.910;116.432;2022-07-29T21:01:09;100308.26;;;26.43;72.22
65602;BME280;52273;39.910;116.432;2022-07-29T21:03:39;100308.13;;;26.35;72.33
65602;BME280;52273;39.910;116.432;2022-07-29T21:06:09;100304.76;;;26.31;72.71
65602;BME280;52273;39.910;116.432;2022-07-29T21:08:39;100310.77;;;26.16;73.38
65602;BME280;52273;39.910;116.432;2022-07-29T21:11:08;100306.42;;;26.17;73.34
65602;BME280;52273;39.910;116.432;2022-07-29T21:13:38;100315.67;;;26.28;73.05
65602;BME280;52273;39.910;116.432;2022-07-29T21:16:08;100321.44;;;26.29;72.94
65602;BME280;52273;39.910;116.432;2022-07-29T21:18:44;100320.17;;;26.20;73.29
65602;BME280;52273;39.910;116.432;2022-07-29T21:21:14;100320.27;;;26.11;73.90
65602;BME280;52273;39.910;116.432;2022-07-29T21:23:44;100323.22;;;26.21;73.55
65602;BME280;52273;39.910;116.432;2022-07-29T21:26:14;100321.30;;;26.22;73.63
65602;BME280;52273;39.910;116.432;2022-07-29T21:28:44;100329.66;;;26.29;73.39
65602;BME280;52273;39.910;116.432;2022-07-29T21:31:14;100331.28;;;26.42;72.84
65602;BME280;52273;39.910;116.432;2022-07-29T21:33:45;100329.81;;;26.51;72.64
65602;BME280;52273;39.910;116.432;2022-07-29T21:36:15;100328.87;;;26.31;73.44
65602;BME280;52273;39.910;116.432;2022-07-29T21:38:45;100329.13;;;26.15;74.18
65602;BME280;52273;39.910;116.432;2022-07-29T21:41:14;100326.20;;;26.20;74.12
65602;BME280;52273;39.910;116.432;2022-07-29T21:43:44;100329.70;;;26.32;73.67
65602;BME280;52273;39.910;116.432;2022-07-29T21:46:15;100328.19;;;26.38;73.48
65602;BME280;52273;39.910;116.432;2022-07-29T21:48:44;100329.22;;;26.49;73.10
65602;BME280;52273;39.910;116.432;2022-07-29T21:51:14;100338.03;;;26.51;72.99
65602;BME280;52273;39.910;116.432;2022-07-29T21:53:44;100338.15;;;26.56;72.99
65602;BME280;52273;39.910;116.432;2022-07-29T21:56:14;100341.75;;;26.57;73.09
65602;BME280;52273;39.910;116.432;2022-07-29T21:58:44;100343.98;;;26.46;73.62
65602;BME280;52273;39.910;116.432;2022-07-29T22:01:14;100347.08;;;26.52;73.45
65602;BME280;52273;39.910;116.432;2022-07-29T22:03:44;100348.77;;;26.53;73.45
65602;BME280;52273;39.910;116.432;2022-07-29T22:06:13;100345.73;;;26.23;74.94
65602;BME280;52273;39.910;116.432;2022-07-29T22:08:43;100347.08;;;26.09;75.74
65602;BME280;52273;39.910;116.432;2022-07-29T22:11:14;100350.67;;;26.24;75.24
65602;BME280;52273;39.910;116.432;2022-07-29T22:13:44;100350.34;;;26.34;74.79
65602;BME280;52273;39.910;116.432;2022-07-29T22:16:14;100351.02;;;26.42;74.57
65602;BME280;52273;39.910;116.432;2022-07-29T22:18:44;100355.96;;;26.42;74.71
65602;BME280;52273;39.910;116.432;2022-07-29T22:21:14;100358.87;;;26.64;73.83
65602;BME280;52273;39.910;116.432;2022-07-29T22:23:44;100359.16;;;26.65;73.82
65602;BME280;52273;39.910;116.432;2022-07-29T22:26:14;100365.31;;;26.87;72.93
65602;BME280;52273;39.910;116.432;2022-07-29T22:28:43;100364.34;;;26.78;73.41
65602;BME280;52273;39.910;116.432;2022-07-29T22:31:13;100370.02;;;26.89;73.17
65602;BME280;52273;39.910;116.432;2022-07-29T22:33:43;100368.60;;;26.72;73.75
65602;BME280;52273;39.910;116.432;2022-07-29T22:36:13;100367.21;;;26.55;74.72
65602;BME280;52273;39.910;116.432;2022-07-29T22:38:43;100374.55;;;26.66;74.32
65602;BME280;52273;39.910;116.432;2022-07-29T22:41:13;100365.86;;;26.72;74.34
65602;BME280;52273;39.910;116.432;2022-07-29T22:43:42;100375.66;;;26.99;73.23
65602;BME280;52273;39.910;116.432;2022-07-29T22:46:12;100374.80;;;26.96;73.54
65602;BME280;52273;39.910;116.432;2022-07-29T22:48:42;100374.20;;;27.11;73.03
65602;BME280;52273;39.910;116.432;2022-07-29T22:51:12;100378.95;;;27.30;72.41
65602;BME280;52273;39.910;116.432;2022-07-29T22:53:42;100374.84;;;27.49;71.49
65602;BME280;52273;39.910;116.432;2022-07-29T22:56:11;100379.64;;;27.39;72.00
65602;BME280;52273;39.910;116.432;2022-07-29T22:58:42;100380.33;;;27.49;71.61
65602;BME280;52273;39.910;116.432;2022-07-29T23:01:12;100374.70;;;27.39;71.95
65602;BME280;52273;39.910;116.432;2022-07-29T23:03:41;100376.45;;;27.45;71.89
65602;BME280;52273;39.910;116.432;2022-07-29T23:06:11;100379.09;;;27.57;71.42
65602;BME280;52273;39.910;116.432;2022-07-29T23:08:41;100376.28;;;27.52;71.69
65602;BME280;52273;39.910;116.432;2022-07-29T23:11:11;100379.09;;;27.40;72.40
65602;BME280;52273;39.910;116.432;2022-07-29T23:13:41;100382.14;;;27.24;73.06
65602;BME280;52273;39.910;116.432;2022-07-29T23:16:11;100381.80;;;27.54;72.08
65602;BME280;52273;39.910;116.432;2022-07-29T23:18:40;100370.46;;;27.68;71.37
65602;BME280;52273;39.910;116.432;2022-07-29T23:21:10;100373.57;;;27.37;72.61
65602;BME280;52273;39.910;116.432;2022-07-29T23:23:40;100372.41;;;27.33;72.82
65602;BME280;52273;39.910;116.432;2022-07-29T23:26:11;100370.75;;;27.32;72.91
65602;BME280;52273;39.910;116.432;2022-07-29T23:28:42;100380.98;;;27.54;72.21
65602;BME280;52273;39.910;116.432;2022-07-29T23:31:12;100380.16;;;27.56;72.39
65602;BME280;52273;39.910;116.432;2022-07-29T23:33:42;100379.63;;;27.76;71.49
65602;BME280;52273;39.910;116.432;2022-07-29T23:36:12;100376.38;;;27.98;70.66
65602;BME280;52273;39.910;116.432;2022-07-29T23:38:42;100380.27;;;27.83;71.25
65602;BME280;52273;39.910;116.432;2022-07-29T23:41:12;100382.50;;;27.83;71.47
65602;BME280;52273;39.910;116.432;2022-07-29T23:43:42;100380.36;;;27.86;71.51
65602;BME280;52273;39.910;116.432;2022-07-29T23:46:12;100372.30;;;27.81;71.35
65602;BME280;52273;39.910;116.432;2022-07-29T23:48:41;100377.95;;;28.14;70.39
65602;BME280;52273;39.910;116.432;2022-07-29T23:51:11;100375.78;;;28.38;69.29
65602;BME280;52273;39.910;116.432;2022-07-29T23:53:41;100367.20;;;28.34;69.53
65602;BME280;52273;39.910;116.432;2022-07-29T23:56:11;100363.41;;;28.16;70.25
65602;BME280;52273;39.910;116.432;2022-07-29T23:58:41;100370.16;;;28.50;68.95
